Ottumwa Regional Airport
KOTM : rendu visible

Aérodrome :











RETROUVEZ-NOUS SUR...

 
LOGIN :

S'inscrire | Disclaimer

   EN    FR    IT 

 









Légende :    VFR   VFR Marginal   IFR   IFR Intensif   IFR Très Intensif
Visi : 
Plafond : 
>= 8 km
>= 3000ft
5 à 8 km
1000 à 3000 ft
1500m à 5 km
500 à 1000 ft
800 à 1500m
200 à 500 ft
< 800m
< 200 ft
Symboles :   Orages  Brouillard  Fortes neiges  Fortes précipitations  Vent > 20 kt







- Altitude de l'aérodrome : 845 ft
- Code IATA : OTM


KOTM - Ottumwa Regional

DERNIER METAR :
  • 241905Z AUTO 15005KT 6SM HZ OVC010 14/11 A2989 RMK AO2 CIG 009V013 T01390111

METARs EXPIRÉS :
  • 241853Z AUTO VRB03KT 6SM HZ OVC009 14/11 A2989 RMK AO2 CIG 008V012 SLP124 T01390111
  • 241753Z AUTO 20003KT 5SM BR OVC006 13/11 A2992 RMK AO2 SLP132 60001 T01330111 10133 20094 58009
  • 241653Z AUTO 16004KT 5SM BR OVC007 13/11 A2994 RMK AO2 SLP140 T01280111

TAF KOTM
Valide du 24 à 18h jusqu'au 25 à 18h UTC


241740Z 2418/2518 16006KT P6SM SCT008 BKN015
TEMPO 2418/2419 BKN008
FM242300 16005KT P6SM FEW025
FM251100 VRB03KT P6SM SCT015 BKN035
FIR KZAU / Amérique du Nord



MET'MAP, la Météo Aéronautique d'un coup d'oeil ! - Copyright ORBIFLY Décembre 2007 - Disclaimer

ORBIFLY MET'MAP TEAM :

Programmation & Développement : Alexandra Zaïnal
Conception & Développement : Baudouin d'Aumeries
Co-Programmation & Développement : Marc-Olivier Méhu
Soutien technique & logistique : Manuel Goepfert

Contact : metmap@orbifly.com




SOURCES & CREDITS :

   NOAA       Earth
Advisory